METAR stanice u blizini

 

LYBE - Beograd / Surčin, Srbija
Ažurirano: 26/02/2018 04:30
Light snow, Pretežno oblačno
Light snow, Pretežno oblačno
 Pravac vetra SSI
Vetar: SSI 19 km/h
Temperatura: -7°C
Osećaj hladnoće: -14°C
Tačka rose: -8°C
Vlažnost: 93%
Pritisak: 1016 hPa
Pregled: Light Snow
Oblaci: Mostly Cloudy
Vidljivost: 5 km
Cloud details: Mostly Cloudy 305 m
Mostly Cloudy 914 m
2018/02/26 03:30 LYBE 260330Z 02010KT 5000 -SN BKN010 BKN030 M07/M08 Q1016 R12/4/0593 NOSIG
LYBT - Beograd / Batajnica, Srbija
Ažurirano: 26/02/2018 04:30
Light snow, Pretežno oblačno
Light snow, Pretežno oblačno
 Pravac vetra S
Vetar: S 20 km/h
Temperatura: -7°C
Osećaj hladnoće: -14°C
Tačka rose: -9°C
Vlažnost: 86%
Pritisak: 1016 hPa
Pregled: Light Snow
Oblaci: Mostly Cloudy
Vidljivost: 8 km
Cloud details: Partly Cloudy 518 m
Mostly Cloudy 1006 m
2018/02/26 03:30 LYBT 260330Z 35011KT 8000 -SN SCT017 BKN033 M07/M09 Q1016 RESN R12/////// NOSIG
LYVR - Vršac, Srbija
Ažurirano: 26/02/2018 04:30
Partly Cloudy
Partly Cloudy
 Pravac vetra I
Vetar: I 19 km/h
Temperatura: -3°C
Osećaj hladnoće: -9°C
Tačka rose: -10°C
Vlažnost: 59%
Pritisak: 1016 hPa
Oblaci: Partly Cloudy
Vidljivost: 10 km
Cloud details: Partly Cloudy 1006 m
2018/02/26 03:30 LYVR 260330Z 10010KT 080V140 9999 SCT033 M03/M10 Q1016 R01/////// NOSIG
 
LYKV - Lađevci, Srbija
Ažurirano: 26/02/2018 04:30
Sneg, Oblačno
Sneg, Oblačno
 Pravac vetra varies
Vetar: varies 4 km/h
Temperatura: -6°C
Tačka rose: -7°C
Vlažnost: 93%
Pritisak: 1013 hPa
Pregled: Sneg
Oblaci: Oblačno
Vidljivost: 3 km
Cloud details: Mostly Cloudy 457 m
Oblačno 823 m
2018/02/26 03:30 LYKV 260330Z VRB02KT 2500 SN BKN015 OVC027 M06/M07 Q1013 NOSIG
LYNI - Niš, Srbija
Ažurirano: 26/02/2018 04:30
Sneg, Mist, Pretežno oblačno
Sneg, Mist, Pretežno oblačno
 Pravac vetra SI
Vetar: SI 19 km/h
Temperatura: -5°C
Osećaj hladnoće: -12°C
Tačka rose: -11°C
Vlažnost: 63%
Pritisak: 1011 hPa
Pregled: Sneg, Mist
Oblaci: Mostly Cloudy
Vidljivost: 5 km
Cloud details: Partly Cloudy 305 m
Mostly Cloudy 2073 m
2018/02/26 03:30 LYNI 260330Z 04010KT 010V070 5000 SN BR SCT010 BKN068 M05/M11 Q1011 R11///////
BKPR - Priština, Srbija
Ažurirano: 26/02/2018 04:30
Sneg, Oblačno
Sneg, Oblačno
 Pravac vetra SSI
Vetar: SSI 17 km/h
Temperatura: -8°C
Osećaj hladnoće: -14°C
Tačka rose: -10°C
Vlažnost: 86%
Pritisak: 1007 hPa
Pregled: Sneg
Oblaci: Oblačno
Vidljivost: 1 km
Cloud details: Mostly Cloudy 183 m
Oblačno 457 m
2018/02/26 03:30 BKPR 260330Z 02009KT 0800 R17/P1500 SN BKN006 OVC015 M08/M10 Q1007 NOSIG RMK 17490294
 
LHPP - Pecs / Pogany, Hungary
Ažurirano: 25/02/2018 17:45
NOT Current
Mostly Cloudy
Mostly Cloudy
 Pravac vetra SSI
Vetar: SSI 15 km/h
Temperatura: -6°C
Osećaj hladnoće: -12°C
Tačka rose: -13°C
Vlažnost: 58%
Pritisak: 1021 hPa
Oblaci: Mostly Cloudy
Vidljivost: 10 km
Cloud details: Few Clouds 914 m
Mostly Cloudy 6096 m
2018/02/25 16:45 LHPP 251645Z 03008KT 9999 FEW030 BKN200 M06/M13 Q1021
LHUD - Szeged, Hungary
Ažurirano: 26/02/2018 03:45
Vedro
Vedro
 Pravac vetra SSI
Vetar: SSI 30 km/h
Temperatura: -9°C
Osećaj hladnoće: -18°C
Tačka rose: -13°C
Vlažnost: 73%
Pritisak: 1019 hPa
Pregled: Vedro
Vidljivost: greater than 10 km
2018/02/26 02:45 LHUD 260245Z 03016KT CAVOK M09/M13 Q1019
LRTR - Timisoara, Romania
Ažurirano: 26/02/2018 04:30
Light snow, Mist, Delimično oblačno
Light snow, Mist, Delimično oblačno
 Pravac vetra SI
Vetar: SI 9 km/h
Temperatura: -5°C
Osećaj hladnoće: -9°C
Tačka rose: -8°C
Vlažnost: 80%
Pritisak: 1016 hPa
Pregled: Light snow, Mist
Oblaci: Partly Cloudy
Vidljivost: 5 km
2018/02/26 03:30 LRTR 260330Z 05005KT 5000 -SN BR NSC M05/M08 Q1016 TEMPO 3000 SN BR
 
LRCV - Craiova, Romania
Ažurirano: 26/02/2018 04:30
Sneg, Low drifting, Sneg
Sneg, Low drifting, Sneg
 Pravac vetra ISI
Vetar: ISI 33 km/h
Temperatura: -9°C
Osećaj hladnoće: -18°C
Tačka rose: -10°C
Vlažnost: 93%
Pritisak: 1017 hPa
Pregled: Sneg, Low drifting
Oblaci: Mostly Cloudy
Vidljivost: 2 km
Cloud details: Mostly Cloudy 152 m
2018/02/26 03:30 LRCV 260330Z 07018KT 2100 SN DRSN BKN005 M09/M10 Q1017 R09/490593
LBSF - Sofia, Bulgaria
Ažurirano: 26/02/2018 04:30
Sneg, Oblačno
Sneg, Oblačno
 Pravac vetra I
Vetar: I 13 km/h
Temperatura: -6°C
Osećaj hladnoće: -12°C
Tačka rose: -6°C
Vlažnost: 100%
Pritisak: 1009 hPa
Pregled: Sneg
Oblaci: Oblačno
Vidljivost: 2 km
Cloud details: Oblačno 305 m
2018/02/26 03:30 LBSF 260330Z 08007KT 1700 SN VV010 M06/M06 Q1009 R99/490293 TEMPO 0600 +SN BKN003
LWSK - Skoplje, Makedonija
Ažurirano: 26/02/2018 04:30
Sneg, Oblačno
Sneg, Oblačno
 Pravac vetra SZ
Vetar: SZ 9 km/h
Temperatura: -6°C
Osećaj hladnoće: -11°C
Tačka rose: -6°C
Vlažnost: 100%
Pritisak: 1008 hPa
Pregled: Sneg
Oblaci: Oblačno
Vidljivost: 1 km
Cloud details: Mostly Cloudy 305 m
Oblačno 1006 m
2018/02/26 03:30 LWSK 260330Z 31005KT 1300 R34/2000 SN BKN010 OVC033 M06/M06 Q1008 R99/5///95 NOSIG
 
LYPG - Podgorica, Crna Gora
Ažurirano: 26/02/2018 04:30
Oblačno
Oblačno
 Pravac vetra SSI
Vetar: SSI 28 km/h
Temperatura: 0°C
Osećaj hladnoće: -6°C
Tačka rose: -13°C
Vlažnost: 37%
Pritisak: 1003 hPa
Oblaci: Oblačno
Vidljivost: 10 km
Cloud details: Mostly Cloudy 1219 m
Oblačno 2438 m
2018/02/26 03:30 LYPG 260330Z 02015KT 9999 BKN040 OVC080 00/M13 Q1003 NOSIG
LQSA - Sarajevo, Bosna i Hercegovina
Ažurirano: 26/02/2018 04:00
Light snow, Oblačno
Light snow, Oblačno
 Pravac vetra I
Vetar: I 9 km/h
Temperatura: -7°C
Osećaj hladnoće: -12°C
Tačka rose: -13°C
Vlažnost: 63%
Pritisak: 1010 hPa
Pregled: Light Snow
Oblaci: Oblačno
Vidljivost: 8 km
Cloud details: Few Clouds 610 m
Oblačno 1067 m
2018/02/26 03:00 LQSA 260300Z 08005KT 020V130 8000 -SN FEW020 OVC035 M07/M13 Q1010
LDOS - Osijek, Hrvatksa
Ažurirano: 26/02/2018 04:30
Vedro
Vedro
 Pravac vetra SSI
Vetar: SSI 24 km/h
Temperatura: -8°C
Osećaj hladnoće: -16°C
Tačka rose: -12°C
Vlažnost: 73%
Pritisak: 1017 hPa
Pregled: Vedro
Vidljivost: greater than 10 km
2018/02/26 03:30 LDOS 260330Z 03013KT CAVOK M08/M12 Q1017